sensor_id;sensor_type;location;lat;lon;timestamp;pressure;altitude;pressure_sealevel;temperature;humidity
57948;BME280;43754;56.992;24.292;2023-04-08T00:00:46;102449.69;;;5.91;100.00
57948;BME280;43754;56.992;24.292;2023-04-08T00:03:19;102451.91;;;5.84;100.00
57948;BME280;43754;56.992;24.292;2023-04-08T00:05:51;102452.25;;;5.80;100.00
57948;BME280;43754;56.992;24.292;2023-04-08T00:08:24;102447.41;;;5.72;100.00
57948;BME280;43754;56.992;24.292;2023-04-08T00:10:56;102442.31;;;5.69;100.00
57948;BME280;43754;56.992;24.292;2023-04-08T00:13:28;102441.69;;;5.66;100.00
57948;BME280;43754;56.992;24.292;2023-04-08T00:16:00;102446.16;;;5.65;100.00
57948;BME280;43754;56.992;24.292;2023-04-08T00:18:32;102449.75;;;5.64;100.00
57948;BME280;43754;56.992;24.292;2023-04-08T00:21:04;102447.31;;;5.61;100.00
57948;BME280;43754;56.992;24.292;2023-04-08T00:23:38;102452.75;;;5.60;100.00
57948;BME280;43754;56.992;24.292;2023-04-08T00:26:10;102457.34;;;5.57;100.00
57948;BME280;43754;56.992;24.292;2023-04-08T00:28:43;102446.91;;;5.54;100.00
57948;BME280;43754;56.992;24.292;2023-04-08T00:31:15;102454.91;;;5.54;100.00
57948;BME280;43754;56.992;24.292;2023-04-08T00:33:48;102448.94;;;5.51;100.00
57948;BME280;43754;56.992;24.292;2023-04-08T00:36:20;102448.81;;;5.52;100.00
57948;BME280;43754;56.992;24.292;2023-04-08T00:38:53;102449.13;;;5.48;100.00
57948;BME280;43754;56.992;24.292;2023-04-08T00:41:25;102447.31;;;5.48;100.00
57948;BME280;43754;56.992;24.292;2023-04-08T00:43:57;102449.34;;;5.45;100.00
57948;BME280;43754;56.992;24.292;2023-04-08T00:46:30;102449.34;;;5.45;100.00
57948;BME280;43754;56.992;24.292;2023-04-08T00:49:06;102449.56;;;5.42;100.00
57948;BME280;43754;56.992;24.292;2023-04-08T00:51:38;102449.88;;;5.37;100.00
57948;BME280;43754;56.992;24.292;2023-04-08T00:54:11;102453.47;;;5.36;100.00
57948;BME280;43754;56.992;24.292;2023-04-08T00:56:43;102441.44;;;5.31;100.00
57948;BME280;43754;56.992;24.292;2023-04-08T00:59:17;102444.41;;;5.26;100.00
57948;BME280;43754;56.992;24.292;2023-04-08T01:01:54;102449.94;;;5.23;100.00
57948;BME280;43754;56.992;24.292;2023-04-08T01:04:32;102445.50;;;5.24;100.00
57948;BME280;43754;56.992;24.292;2023-04-08T01:07:14;102437.81;;;5.19;100.00
57948;BME280;43754;56.992;24.292;2023-04-08T01:09:52;102441.56;;;5.17;100.00
57948;BME280;43754;56.992;24.292;2023-04-08T01:12:26;102443.56;;;5.13;100.00
57948;BME280;43754;56.992;24.292;2023-04-08T01:15:03;102441.22;;;5.08;100.00
57948;BME280;43754;56.992;24.292;2023-04-08T01:17:36;102445.03;;;5.04;100.00
57948;BME280;43754;56.992;24.292;2023-04-08T01:20:09;102442.56;;;5.01;100.00
57948;BME280;43754;56.992;24.292;2023-04-08T01:22:55;102448.94;;;4.99;100.00
57948;BME280;43754;56.992;24.292;2023-04-08T01:25:31;102444.16;;;4.91;100.00
57948;BME280;43754;56.992;24.292;2023-04-08T01:28:06;102449.00;;;4.85;100.00
57948;BME280;43754;56.992;24.292;2023-04-08T01:30:40;102458.13;;;4.81;100.00
57948;BME280;43754;56.992;24.292;2023-04-08T01:33:15;102447.69;;;4.78;100.00
57948;BME280;43754;56.992;24.292;2023-04-08T01:35:47;102446.97;;;4.76;100.00
57948;BME280;43754;56.992;24.292;2023-04-08T01:38:22;102451.50;;;4.74;100.00
57948;BME280;43754;56.992;24.292;2023-04-08T01:40:56;102455.13;;;4.73;100.00
57948;BME280;43754;56.992;24.292;2023-04-08T01:43:32;102448.00;;;4.73;100.00
57948;BME280;43754;56.992;24.292;2023-04-08T01:46:09;102445.66;;;4.69;100.00
57948;BME280;43754;56.992;24.292;2023-04-08T01:48:43;102450.59;;;4.60;100.00
57948;BME280;43754;56.992;24.292;2023-04-08T01:51:16;102450.25;;;4.52;100.00
57948;BME280;43754;56.992;24.292;2023-04-08T01:53:49;102437.69;;;4.42;100.00
57948;BME280;43754;56.992;24.292;2023-04-08T01:56:21;102444.88;;;4.40;100.00
57948;BME280;43754;56.992;24.292;2023-04-08T01:58:57;102450.31;;;4.38;100.00
57948;BME280;43754;56.992;24.292;2023-04-08T02:01:31;102440.06;;;4.32;100.00
57948;BME280;43754;56.992;24.292;2023-04-08T02:04:06;102443.00;;;4.28;100.00
57948;BME280;43754;56.992;24.292;2023-04-08T02:06:38;102446.44;;;4.30;100.00
57948;BME280;43754;56.992;24.292;2023-04-08T02:09:10;102444.94;;;4.26;100.00
57948;BME280;43754;56.992;24.292;2023-04-08T02:11:42;102441.50;;;4.24;100.00
57948;BME280;43754;56.992;24.292;2023-04-08T02:14:15;102439.13;;;4.19;100.00
57948;BME280;43754;56.992;24.292;2023-04-08T02:16:51;102443.72;;;4.17;100.00
57948;BME280;43754;56.992;24.292;2023-04-08T02:19:28;102449.31;;;4.12;100.00
57948;BME280;43754;56.992;24.292;2023-04-08T02:22:04;102451.38;;;4.07;100.00
57948;BME280;43754;56.992;24.292;2023-04-08T02:24:40;102450.91;;;4.01;100.00
57948;BME280;43754;56.992;24.292;2023-04-08T02:27:14;102449.31;;;3.98;100.00
57948;BME280;43754;56.992;24.292;2023-04-08T02:29:49;102451.03;;;3.99;100.00
57948;BME280;43754;56.992;24.292;2023-04-08T02:32:27;102451.31;;;3.95;100.00
57948;BME280;43754;56.992;24.292;2023-04-08T02:35:00;102448.94;;;3.90;100.00
57948;BME280;43754;56.992;24.292;2023-04-08T02:37:34;102453.00;;;3.82;100.00
57948;BME280;43754;56.992;24.292;2023-04-08T02:40:22;102456.78;;;3.78;100.00
57948;BME280;43754;56.992;24.292;2023-04-08T02:42:55;102449.97;;;3.74;100.00
57948;BME280;43754;56.992;24.292;2023-04-08T02:45:32;102451.13;;;3.69;100.00
57948;BME280;43754;56.992;24.292;2023-04-08T02:48:09;102456.50;;;3.68;100.00
57948;BME280;43754;56.992;24.292;2023-04-08T02:50:41;102460.19;;;3.65;100.00
57948;BME280;43754;56.992;24.292;2023-04-08T02:53:13;102463.97;;;3.61;100.00
57948;BME280;43754;56.992;24.292;2023-04-08T02:55:45;102464.34;;;3.55;100.00
57948;BME280;43754;56.992;24.292;2023-04-08T02:58:17;102460.94;;;3.53;100.00
57948;BME280;43754;56.992;24.292;2023-04-08T03:00:51;102462.66;;;3.54;100.00
57948;BME280;43754;56.992;24.292;2023-04-08T03:03:23;102460.94;;;3.53;100.00
57948;BME280;43754;56.992;24.292;2023-04-08T03:05:59;102459.31;;;3.51;100.00
57948;BME280;43754;56.992;24.292;2023-04-08T03:08:31;102463.22;;;3.45;100.00
57948;BME280;43754;56.992;24.292;2023-04-08T03:11:04;102464.41;;;3.40;100.00
57948;BME280;43754;56.992;24.292;2023-04-08T03:13:36;102462.81;;;3.37;100.00
57948;BME280;43754;56.992;24.292;2023-04-08T03:16:09;102466.41;;;3.36;100.00
57948;BME280;43754;56.992;24.292;2023-04-08T03:18:41;102470.78;;;3.37;100.00
57948;BME280;43754;56.992;24.292;2023-04-08T03:21:13;102470.38;;;3.29;100.00
57948;BME280;43754;56.992;24.292;2023-04-08T03:23:45;102469.59;;;3.27;100.00
57948;BME280;43754;56.992;24.292;2023-04-08T03:26:17;102469.69;;;3.26;100.00
57948;BME280;43754;56.992;24.292;2023-04-08T03:28:51;102469.56;;;3.13;100.00
57948;BME280;43754;56.992;24.292;2023-04-08T03:31:25;102466.41;;;3.06;100.00
57948;BME280;43754;56.992;24.292;2023-04-08T03:33:56;102477.88;;;3.07;100.00
57948;BME280;43754;56.992;24.292;2023-04-08T03:36:28;102474.28;;;3.08;100.00
57948;BME280;43754;56.992;24.292;2023-04-08T03:39:02;102473.50;;;3.06;100.00
57948;BME280;43754;56.992;24.292;2023-04-08T03:41:34;102484.94;;;3.06;100.00
57948;BME280;43754;56.992;24.292;2023-04-08T03:44:06;102489.00;;;2.98;100.00
57948;BME280;43754;56.992;24.292;2023-04-08T03:46:39;102488.25;;;2.96;100.00
57948;BME280;43754;56.992;24.292;2023-04-08T03:49:11;102483.69;;;2.98;100.00
57948;BME280;43754;56.992;24.292;2023-04-08T03:51:43;102484.47;;;3.00;100.00
57948;BME280;43754;56.992;24.292;2023-04-08T03:54:15;102481.56;;;3.04;100.00
57948;BME280;43754;56.992;24.292;2023-04-08T03:56:48;102486.59;;;3.09;100.00
57948;BME280;43754;56.992;24.292;2023-04-08T03:59:20;102484.69;;;3.11;100.00
57948;BME280;43754;56.992;24.292;2023-04-08T04:01:55;102486.03;;;3.18;100.00
57948;BME280;43754;56.992;24.292;2023-04-08T04:04:27;102489.19;;;3.24;100.00
57948;BME280;43754;56.992;24.292;2023-04-08T04:06:59;102493.38;;;3.29;100.00
57948;BME280;43754;56.992;24.292;2023-04-08T04:09:31;102489.66;;;3.31;100.00
57948;BME280;43754;56.992;24.292;2023-04-08T04:12:03;102484.97;;;3.36;100.00
57948;BME280;43754;56.992;24.292;2023-04-08T04:14:35;102493.22;;;3.46;100.00
57948;BME280;43754;56.992;24.292;2023-04-08T04:17:09;102495.41;;;3.53;100.00
57948;BME280;43754;56.992;24.292;2023-04-08T04:19:41;102495.03;;;3.59;100.00
57948;BME280;43754;56.992;24.292;2023-04-08T04:22:13;102495.81;;;3.61;100.00
57948;BME280;43754;56.992;24.292;2023-04-08T04:24:46;102500.06;;;3.64;100.00
57948;BME280;43754;56.992;24.292;2023-04-08T04:27:18;102500.56;;;3.70;100.00
57948;BME280;43754;56.992;24.292;2023-04-08T04:29:50;102498.66;;;3.72;100.00
57948;BME280;43754;56.992;24.292;2023-04-08T04:32:23;102494.97;;;3.75;100.00
57948;BME280;43754;56.992;24.292;2023-04-08T04:34:56;102500.94;;;3.79;100.00
57948;BME280;43754;56.992;24.292;2023-04-08T04:37:28;102503.41;;;3.82;100.00
57948;BME280;43754;56.992;24.292;2023-04-08T04:39:59;102504.88;;;3.71;100.00
57948;BME280;43754;56.992;24.292;2023-04-08T04:42:32;102507.47;;;3.73;100.00
57948;BME280;43754;56.992;24.292;2023-04-08T04:45:04;102508.44;;;3.86;100.00
57948;BME280;43754;56.992;24.292;2023-04-08T04:47:38;102507.75;;;3.97;100.00
57948;BME280;43754;56.992;24.292;2023-04-08T04:50:10;102511.66;;;4.05;100.00
57948;BME280;43754;56.992;24.292;2023-04-08T04:52:42;102508.91;;;4.21;100.00
57948;BME280;43754;56.992;24.292;2023-04-08T04:55:14;102516.28;;;4.30;100.00
57948;BME280;43754;56.992;24.292;2023-04-08T04:57:46;102505.75;;;4.43;100.00
57948;BME280;43754;56.992;24.292;2023-04-08T05:00:18;102508.81;;;4.63;100.00
57948;BME280;43754;56.992;24.292;2023-04-08T05:02:52;102513.22;;;4.91;100.00
57948;BME280;43754;56.992;24.292;2023-04-08T05:05:24;102512.47;;;5.16;100.00
57948;BME280;43754;56.992;24.292;2023-04-08T05:07:56;102507.56;;;5.23;100.00
57948;BME280;43754;56.992;24.292;2023-04-08T05:10:28;102505.81;;;5.36;100.00
57948;BME280;43754;56.992;24.292;2023-04-08T05:13:01;102512.56;;;5.54;100.00
57948;BME280;43754;56.992;24.292;2023-04-08T05:15:33;102512.13;;;5.73;100.00
57948;BME280;43754;56.992;24.292;2023-04-08T05:18:06;102516.13;;;5.92;100.00
57948;BME280;43754;56.992;24.292;2023-04-08T05:20:38;102509.81;;;6.19;99.62
57948;BME280;43754;56.992;24.292;2023-04-08T05:23:11;102511.81;;;6.40;97.40
57948;BME280;43754;56.992;24.292;2023-04-08T05:25:43;102506.53;;;6.52;95.79
57948;BME280;43754;56.992;24.292;2023-04-08T05:28:15;102511.06;;;6.75;95.22
57948;BME280;43754;56.992;24.292;2023-04-08T05:30:48;102520.16;;;6.96;94.87
57948;BME280;43754;56.992;24.292;2023-04-08T05:33:22;102521.59;;;7.13;94.80
57948;BME280;43754;56.992;24.292;2023-04-08T05:35:54;102532.84;;;7.40;93.68
57948;BME280;43754;56.992;24.292;2023-04-08T05:38:26;102527.09;;;7.68;91.02
57948;BME280;43754;56.992;24.292;2023-04-08T05:40:58;102524.13;;;7.95;90.37
57948;BME280;43754;56.992;24.292;2023-04-08T05:43:31;102522.06;;;7.88;90.41
57948;BME280;43754;56.992;24.292;2023-04-08T05:46:06;102523.53;;;7.92;88.51
57948;BME280;43754;56.992;24.292;2023-04-08T05:48:40;102529.00;;;8.12;91.27
57948;BME280;43754;56.992;24.292;2023-04-08T05:51:12;102522.59;;;8.48;90.31
57948;BME280;43754;56.992;24.292;2023-04-08T05:53:45;102520.59;;;8.84;87.15
57948;BME280;43754;56.992;24.292;2023-04-08T05:56:17;102516.50;;;9.11;86.16
57948;BME280;43754;56.992;24.292;2023-04-08T05:58:49;102521.00;;;9.43;83.67
57948;BME280;43754;56.992;24.292;2023-04-08T06:01:22;102517.75;;;9.60;82.56
57948;BME280;43754;56.992;24.292;2023-04-08T06:03:56;102520.72;;;9.87;81.96
57948;BME280;43754;56.992;24.292;2023-04-08T06:06:28;102524.91;;;10.01;78.51
57948;BME280;43754;56.992;24.292;2023-04-08T06:09:00;102523.66;;;10.26;82.85
57948;BME280;43754;56.992;24.292;2023-04-08T06:11:32;102522.00;;;10.44;76.44
57948;BME280;43754;56.992;24.292;2023-04-08T06:14:04;102523.34;;;10.59;77.01
57948;BME280;43754;56.992;24.292;2023-04-08T06:16:36;102524.38;;;10.87;76.62
57948;BME280;43754;56.992;24.292;2023-04-08T06:19:09;102529.34;;;11.11;75.07
57948;BME280;43754;56.992;24.292;2023-04-08T06:21:41;102528.97;;;11.34;73.81
57948;BME280;43754;56.992;24.292;2023-04-08T06:24:13;102531.22;;;11.39;68.02
57948;BME280;43754;56.992;24.292;2023-04-08T06:26:45;102531.34;;;11.57;70.98
57948;BME280;43754;56.992;24.292;2023-04-08T06:29:19;102524.69;;;11.70;66.66
57948;BME280;43754;56.992;24.292;2023-04-08T06:31:51;102535.72;;;11.67;69.06
57948;BME280;43754;56.992;24.292;2023-04-08T06:34:24;102532.66;;;11.81;67.29
57948;BME280;43754;56.992;24.292;2023-04-08T06:36:56;102533.75;;;11.98;64.84
57948;BME280;43754;56.992;24.292;2023-04-08T06:39:28;102528.72;;;12.22;62.92
57948;BME280;43754;56.992;24.292;2023-04-08T06:42:00;102526.22;;;12.38;63.22
57948;BME280;43754;56.992;24.292;2023-04-08T06:44:50;102528.69;;;12.59;60.09
57948;BME280;43754;56.992;24.292;2023-04-08T06:47:22;102528.16;;;12.73;61.06
57948;BME280;43754;56.992;24.292;2023-04-08T06:49:56;102521.88;;;12.82;59.70
57948;BME280;43754;56.992;24.292;2023-04-08T06:52:28;102529.03;;;12.91;59.71
57948;BME280;43754;56.992;24.292;2023-04-08T06:55:00;102528.00;;;13.02;60.50
57948;BME280;43754;56.992;24.292;2023-04-08T06:57:32;102535.41;;;13.18;60.22
57948;BME280;43754;56.992;24.292;2023-04-08T07:00:07;102535.56;;;13.34;59.91
57948;BME280;43754;56.992;24.292;2023-04-08T07:02:39;102533.41;;;13.38;59.91
57948;BME280;43754;56.992;24.292;2023-04-08T07:05:13;102538.34;;;13.60;59.69
57948;BME280;43754;56.992;24.292;2023-04-08T07:07:45;102530.44;;;13.66;62.08
57948;BME280;43754;56.992;24.292;2023-04-08T07:10:17;102535.91;;;13.74;62.96
57948;BME280;43754;56.992;24.292;2023-04-08T07:12:49;102536.88;;;13.91;61.35
57948;BME280;43754;56.992;24.292;2023-04-08T07:15:21;102532.75;;;14.05;59.89
57948;BME280;43754;56.992;24.292;2023-04-08T07:17:53;102541.41;;;14.16;58.85
57948;BME280;43754;56.992;24.292;2023-04-08T07:20:31;102537.75;;;14.25;58.83
57948;BME280;43754;56.992;24.292;2023-04-08T07:23:03;102535.00;;;14.35;57.89
57948;BME280;43754;56.992;24.292;2023-04-08T07:25:35;102532.84;;;14.47;57.80
57948;BME280;43754;56.992;24.292;2023-04-08T07:28:07;102537.78;;;14.59;57.95
57948;BME280;43754;56.992;24.292;2023-04-08T07:30:39;102534.44;;;14.65;57.14
57948;BME280;43754;56.992;24.292;2023-04-08T07:33:11;102536.53;;;14.80;57.24
57948;BME280;43754;56.992;24.292;2023-04-08T07:35:44;102536.19;;;14.91;56.77
57948;BME280;43754;56.992;24.292;2023-04-08T07:38:17;102529.31;;;14.96;56.00
57948;BME280;43754;56.992;24.292;2023-04-08T07:40:49;102534.94;;;15.11;56.10
57948;BME280;43754;56.992;24.292;2023-04-08T07:43:21;102532.91;;;15.21;55.62
57948;BME280;43754;56.992;24.292;2023-04-08T07:45:56;102537.66;;;15.35;54.82
57948;BME280;43754;56.992;24.292;2023-04-08T07:48:31;102527.13;;;15.08;54.39
57948;BME280;43754;56.992;24.292;2023-04-08T07:51:06;102532.53;;;15.08;55.42
57948;BME280;43754;56.992;24.292;2023-04-08T07:53:42;102530.41;;;15.28;56.42
57948;BME280;43754;56.992;24.292;2023-04-08T07:56:14;102537.53;;;15.53;55.21
57948;BME280;43754;56.992;24.292;2023-04-08T07:58:49;102532.78;;;15.79;52.34
57948;BME280;43754;56.992;24.292;2023-04-08T08:01:24;102533.28;;;15.83;51.62
57948;BME280;43754;56.992;24.292;2023-04-08T08:03:56;102531.94;;;15.71;52.55
57948;BME280;43754;56.992;24.292;2023-04-08T08:06:30;102535.50;;;15.71;52.83
57948;BME280;43754;56.992;24.292;2023-04-08T08:09:05;102539.19;;;15.70;53.49
57948;BME280;43754;56.992;24.292;2023-04-08T08:11:37;102530.78;;;15.57;53.78
57948;BME280;43754;56.992;24.292;2023-04-08T08:14:09;102529.84;;;15.24;54.59
57948;BME280;43754;56.992;24.292;2023-04-08T08:16:42;102524.31;;;15.26;54.06
57948;BME280;43754;56.992;24.292;2023-04-08T08:19:15;102519.75;;;15.42;53.63
57948;BME280;43754;56.992;24.292;2023-04-08T08:21:48;102518.78;;;15.59;53.50
57948;BME280;43754;56.992;24.292;2023-04-08T08:24:20;102517.38;;;15.88;53.13
57948;BME280;43754;56.992;24.292;2023-04-08T08:26:52;102520.75;;;16.06;51.42
57948;BME280;43754;56.992;24.292;2023-04-08T08:29:24;102521.53;;;16.23;52.16
57948;BME280;43754;56.992;24.292;2023-04-08T08:31:56;102520.50;;;16.32;50.03
57948;BME280;43754;56.992;24.292;2023-04-08T08:34:28;102519.16;;;16.28;50.73
57948;BME280;43754;56.992;24.292;2023-04-08T08:37:02;102522.00;;;16.34;50.94
57948;BME280;43754;56.992;24.292;2023-04-08T08:39:34;102518.06;;;16.53;50.02
57948;BME280;43754;56.992;24.292;2023-04-08T08:42:06;102520.09;;;16.59;50.16
57948;BME280;43754;56.992;24.292;2023-04-08T08:44:38;102520.25;;;16.58;48.75
57948;BME280;43754;56.992;24.292;2023-04-08T08:47:10;102518.25;;;16.43;49.42
57948;BME280;43754;56.992;24.292;2023-04-08T08:49:42;102514.56;;;16.36;49.22
57948;BME280;43754;56.992;24.292;2023-04-08T08:52:16;102523.75;;;16.19;49.32
57948;BME280;43754;56.992;24.292;2023-04-08T08:54:56;102524.09;;;16.08;49.01
57948;BME280;43754;56.992;24.292;2023-04-08T08:57:28;102529.75;;;15.90;50.35
57948;BME280;43754;56.992;24.292;2023-04-08T09:00:00;102525.16;;;15.75;50.67
57948;BME280;43754;56.992;24.292;2023-04-08T09:02:34;102521.97;;;15.55;50.51
57948;BME280;43754;56.992;24.292;2023-04-08T09:05:06;102524.81;;;15.45;50.36
57948;BME280;43754;56.992;24.292;2023-04-08T09:07:40;102523.31;;;15.43;50.12
57948;BME280;43754;56.992;24.292;2023-04-08T09:10:12;102519.09;;;15.40;50.75
57948;BME280;43754;56.992;24.292;2023-04-08T09:12:54;102521.25;;;15.45;49.84
57948;BME280;43754;56.992;24.292;2023-04-08T09:15:27;102521.47;;;15.59;50.57
57948;BME280;43754;56.992;24.292;2023-04-08T09:17:58;102517.38;;;15.88;49.66
57948;BME280;43754;56.992;24.292;2023-04-08T09:20:31;102512.75;;;16.21;48.69
57948;BME280;43754;56.992;24.292;2023-04-08T09:23:05;102518.13;;;16.29;48.25
57948;BME280;43754;56.992;24.292;2023-04-08T09:25:37;102510.84;;;16.29;47.39
57948;BME280;43754;56.992;24.292;2023-04-08T09:28:18;102519.00;;;16.21;47.25
57948;BME280;43754;56.992;24.292;2023-04-08T09:30:51;102511.53;;;16.31;47.61
57948;BME280;43754;56.992;24.292;2023-04-08T09:33:29;102513.78;;;16.67;46.19
57948;BME280;43754;56.992;24.292;2023-04-08T09:36:01;102512.75;;;16.68;46.02
57948;BME280;43754;56.992;24.292;2023-04-08T09:38:35;102512.09;;;16.66;45.78
57948;BME280;43754;56.992;24.292;2023-04-08T09:41:07;102508.78;;;16.86;46.21
57948;BME280;43754;56.992;24.292;2023-04-08T09:43:44;102511.66;;;17.08;46.14
57948;BME280;43754;56.992;24.292;2023-04-08T09:46:25;102508.97;;;17.30;45.96
57948;BME280;43754;56.992;24.292;2023-04-08T09:49:04;102502.28;;;17.64;45.67
57948;BME280;43754;56.992;24.292;2023-04-08T09:51:41;102508.22;;;17.82;43.60
57948;BME280;43754;56.992;24.292;2023-04-08T09:54:19;102506.28;;;18.05;44.79
57948;BME280;43754;56.992;24.292;2023-04-08T09:57:00;102511.06;;;18.18;44.45
57948;BME280;43754;56.992;24.292;2023-04-08T09:59:33;102514.69;;;18.25;44.58
57948;BME280;43754;56.992;24.292;2023-04-08T10:02:09;102518.66;;;18.22;45.38
57948;BME280;43754;56.992;24.292;2023-04-08T10:04:43;102511.34;;;18.23;44.76
57948;BME280;43754;56.992;24.292;2023-04-08T10:07:16;102516.28;;;18.05;44.29
57948;BME280;43754;56.992;24.292;2023-04-08T10:09:51;102515.25;;;18.20;45.63
57948;BME280;43754;56.992;24.292;2023-04-08T10:12:23;102513.69;;;18.26;44.41
57948;BME280;43754;56.992;24.292;2023-04-08T10:15:21;102515.19;;;18.28;43.76
57948;BME280;43754;56.992;24.292;2023-04-08T10:17:55;102517.63;;;18.23;44.23
57948;BME280;43754;56.992;24.292;2023-04-08T10:20:41;102506.19;;;18.43;44.32
57948;BME280;43754;56.992;24.292;2023-04-08T10:23:14;102510.50;;;18.52;44.27
57948;BME280;43754;56.992;24.292;2023-04-08T10:25:48;102506.75;;;18.38;43.15
57948;BME280;43754;56.992;24.292;2023-04-08T10:28:24;102504.22;;;18.51;44.08
57948;BME280;43754;56.992;24.292;2023-04-08T10:30:56;102504.38;;;18.50;43.49
57948;BME280;43754;56.992;24.292;2023-04-08T10:33:32;102506.16;;;18.72;43.49
57948;BME280;43754;56.992;24.292;2023-04-08T10:36:11;102498.72;;;18.95;42.86
57948;BME280;43754;56.992;24.292;2023-04-08T10:38:44;102503.09;;;18.96;42.44
57948;BME280;43754;56.992;24.292;2023-04-08T10:41:24;102501.50;;;19.02;43.10
57948;BME280;43754;56.992;24.292;2023-04-08T10:43:56;102498.09;;;19.14;43.17
57948;BME280;43754;56.992;24.292;2023-04-08T10:46:28;102497.66;;;18.96;42.96
57948;BME280;43754;56.992;24.292;2023-04-08T10:49:00;102498.69;;;18.74;44.13
57948;BME280;43754;56.992;24.292;2023-04-08T10:51:32;102500.75;;;18.72;43.71
57948;BME280;43754;56.992;24.292;2023-04-08T10:54:06;102496.25;;;18.50;44.31
57948;BME280;43754;56.992;24.292;2023-04-08T10:56:48;102501.97;;;18.69;43.40
57948;BME280;43754;56.992;24.292;2023-04-08T10:59:26;102497.53;;;18.83;42.99
57948;BME280;43754;56.992;24.292;2023-04-08T11:01:58;102495.66;;;18.83;43.33
57948;BME280;43754;56.992;24.292;2023-04-08T11:04:32;102491.69;;;18.65;43.31
57948;BME280;43754;56.992;24.292;2023-04-08T11:07:04;102498.47;;;18.90;43.63
57948;BME280;43754;56.992;24.292;2023-04-08T11:09:38;102500.16;;;18.76;43.17
57948;BME280;43754;56.992;24.292;2023-04-08T11:12:14;102495.16;;;18.95;42.75
57948;BME280;43754;56.992;24.292;2023-04-08T11:14:50;102493.41;;;19.08;43.42
57948;BME280;43754;56.992;24.292;2023-04-08T11:17:23;102505.19;;;18.94;42.92
57948;BME280;43754;56.992;24.292;2023-04-08T11:19:56;102496.53;;;18.69;43.92
57948;BME280;43754;56.992;24.292;2023-04-08T11:22:32;102499.63;;;18.52;43.17
57948;BME280;43754;56.992;24.292;2023-04-08T11:25:06;102502.00;;;18.40;44.75
57948;BME280;43754;56.992;24.292;2023-04-08T11:27:40;102498.53;;;18.31;44.52
57948;BME280;43754;56.992;24.292;2023-04-08T11:30:13;102504.22;;;18.51;43.36
57948;BME280;43754;56.992;24.292;2023-04-08T11:32:45;102504.22;;;18.51;43.69
57948;BME280;43754;56.992;24.292;2023-04-08T11:35:17;102501.59;;;18.58;43.59
57948;BME280;43754;56.992;24.292;2023-04-08T11:37:51;102497.03;;;18.44;44.03
57948;BME280;43754;56.992;24.292;2023-04-08T11:40:23;102507.63;;;18.24;44.43
57948;BME280;43754;56.992;24.292;2023-04-08T11:42:57;102496.84;;;18.30;44.94
57948;BME280;43754;56.992;24.292;2023-04-08T11:45:29;102493.28;;;18.30;45.03
57948;BME280;43754;56.992;24.292;2023-04-08T11:48:07;102488.59;;;18.38;44.38
57948;BME280;43754;56.992;24.292;2023-04-08T11:50:40;102494.13;;;18.30;44.33
57948;BME280;43754;56.992;24.292;2023-04-08T11:53:16;102496.91;;;18.37;44.42
57948;BME280;43754;56.992;24.292;2023-04-08T11:55:49;102492.31;;;18.37;44.28
57948;BME280;43754;56.992;24.292;2023-04-08T11:58:22;102494.94;;;18.16;44.11
57948;BME280;43754;56.992;24.292;2023-04-08T12:00:54;102495.59;;;18.04;44.33
57948;BME280;43754;56.992;24.292;2023-04-08T12:03:26;102501.63;;;17.99;44.95
57948;BME280;43754;56.992;24.292;2023-04-08T12:05:58;102495.78;;;17.87;44.98
57948;BME280;43754;56.992;24.292;2023-04-08T12:08:31;102497.31;;;17.90;44.36
57948;BME280;43754;56.992;24.292;2023-04-08T12:11:03;102496.53;;;17.81;44.81
57948;BME280;43754;56.992;24.292;2023-04-08T12:13:51;102492.50;;;17.77;43.88
57948;BME280;43754;56.992;24.292;2023-04-08T12:16:24;102490.44;;;17.65;44.72
57948;BME280;43754;56.992;24.292;2023-04-08T12:18:56;102488.66;;;17.72;44.37
57948;BME280;43754;56.992;24.292;2023-04-08T12:21:29;102485.69;;;17.81;44.54
57948;BME280;43754;56.992;24.292;2023-04-08T12:24:01;102484.28;;;17.85;43.38
57948;BME280;43754;56.992;24.292;2023-04-08T12:26:33;102488.56;;;17.80;44.27
57948;BME280;43754;56.992;24.292;2023-04-08T12:29:06;102482.78;;;17.83;43.92
57948;BME280;43754;56.992;24.292;2023-04-08T12:31:40;102476.78;;;17.73;43.50
57948;BME280;43754;56.992;24.292;2023-04-08T12:34:12;102491.75;;;17.69;43.72
57948;BME280;43754;56.992;24.292;2023-04-08T12:36:45;102484.75;;;17.52;43.82
57948;BME280;43754;56.992;24.292;2023-04-08T12:39:18;102477.00;;;17.48;43.58
57948;BME280;43754;56.992;24.292;2023-04-08T12:41:50;102481.34;;;17.35;43.63
57948;BME280;43754;56.992;24.292;2023-04-08T12:44:23;102477.59;;;17.36;43.79
57948;BME280;43754;56.992;24.292;2023-04-08T12:46:55;102480.13;;;17.37;43.49
57948;BME280;43754;56.992;24.292;2023-04-08T12:49:29;102476.22;;;17.40;43.18
57948;BME280;43754;56.992;24.292;2023-04-08T12:52:04;102467.19;;;17.02;42.50
57948;BME280;43754;56.992;24.292;2023-04-08T12:54:36;102479.81;;;16.87;43.50
57948;BME280;43754;56.992;24.292;2023-04-08T12:57:08;102475.72;;;16.91;43.35
57948;BME280;43754;56.992;24.292;2023-04-08T12:59:42;102464.28;;;16.81;43.02
57948;BME280;43754;56.992;24.292;2023-04-08T13:02:14;102473.91;;;16.52;43.52
57948;BME280;43754;56.992;24.292;2023-04-08T13:04:46;102474.06;;;16.51;44.60
57948;BME280;43754;56.992;24.292;2023-04-08T13:07:18;102470.03;;;16.47;44.40
57948;BME280;43754;56.992;24.292;2023-04-08T13:09:50;102471.53;;;16.49;44.12
57948;BME280;43754;56.992;24.292;2023-04-08T13:12:22;102471.72;;;16.48;44.50